sensor_id;sensor_type;location;lat;lon;timestamp;pressure;altitude;pressure_sealevel;temperature;humidity
69911;BME280;63555;49.920;17.868;2023-04-21T00:02:04;98857.16;;;2.07;83.22
69911;BME280;63555;49.920;17.868;2023-04-21T00:07:04;98850.31;;;2.05;83.97
69911;BME280;63555;49.920;17.868;2023-04-21T00:12:04;98852.25;;;2.00;83.36
69911;BME280;63555;49.920;17.868;2023-04-21T00:17:05;98852.50;;;1.94;83.26
69911;BME280;63555;49.920;17.868;2023-04-21T00:22:05;98851.94;;;1.85;83.92
69911;BME280;63555;49.920;17.868;2023-04-21T00:27:11;98853.03;;;1.80;83.41
69911;BME280;63555;49.920;17.868;2023-04-21T00:32:12;98854.97;;;1.75;83.81
69911;BME280;63555;49.920;17.868;2023-04-21T00:37:12;98843.88;;;1.70;83.75
69911;BME280;63555;49.920;17.868;2023-04-21T00:42:16;98853.72;;;1.62;83.57
69911;BME280;63555;49.920;17.868;2023-04-21T00:47:17;98854.69;;;1.59;83.82
69911;BME280;63555;49.920;17.868;2023-04-21T00:52:18;98854.91;;;1.53;83.87
69911;BME280;63555;49.920;17.868;2023-04-21T00:57:19;98855.19;;;1.45;83.72
69911;BME280;63555;49.920;17.868;2023-04-21T01:02:21;98853.72;;;1.38;83.59
69911;BME280;63555;49.920;17.868;2023-04-21T01:07:23;98859.16;;;1.32;83.73
69911;BME280;63555;49.920;17.868;2023-04-21T01:12:24;98844.69;;;1.25;83.79
69911;BME280;63555;49.920;17.868;2023-04-21T01:17:24;98841.31;;;1.23;83.74
69911;BME280;63555;49.920;17.868;2023-04-21T01:22:26;98841.31;;;1.23;83.69
69911;BME280;63555;49.920;17.868;2023-04-21T01:27:26;98838.03;;;1.18;83.68
69911;BME280;63555;49.920;17.868;2023-04-21T01:32:28;98843.28;;;1.16;83.97
69911;BME280;63555;49.920;17.868;2023-04-21T01:37:31;98841.53;;;1.17;83.84
69911;BME280;63555;49.920;17.868;2023-04-21T01:42:33;98847.84;;;1.10;83.51
69911;BME280;63555;49.920;17.868;2023-04-21T01:47:34;98842.94;;;1.02;83.93
69911;BME280;63555;49.920;17.868;2023-04-21T01:52:34;98836.25;;;0.95;84.12
69911;BME280;63555;49.920;17.868;2023-04-21T01:57:35;98832.94;;;0.91;83.96
69911;BME280;63555;49.920;17.868;2023-04-21T02:02:35;98833.09;;;0.87;83.78
69911;BME280;63555;49.920;17.868;2023-04-21T02:07:35;98846.31;;;0.79;83.88
69911;BME280;63555;49.920;17.868;2023-04-21T02:12:36;98841.13;;;0.79;84.04
69911;BME280;63555;49.920;17.868;2023-04-21T02:17:36;98839.53;;;0.75;83.95
69911;BME280;63555;49.920;17.868;2023-04-21T02:22:37;98831.91;;;0.71;84.33
69911;BME280;63555;49.920;17.868;2023-04-21T02:27:37;98839.59;;;0.74;84.28
69911;BME280;63555;49.920;17.868;2023-04-21T02:32:38;98840.53;;;0.71;84.24
69911;BME280;63555;49.920;17.868;2023-04-21T02:37:38;98839.84;;;0.66;83.93
69911;BME280;63555;49.920;17.868;2023-04-21T02:42:38;98846.16;;;0.59;83.78
69911;BME280;63555;49.920;17.868;2023-04-21T02:47:39;98845.31;;;0.58;83.82
69911;BME280;63555;49.920;17.868;2023-04-21T02:52:39;98847.16;;;0.55;84.10
69911;BME280;63555;49.920;17.868;2023-04-21T02:57:40;98842.22;;;0.47;83.98
69911;BME280;63555;49.920;17.868;2023-04-21T03:02:41;98843.34;;;0.40;84.04
69911;BME280;63555;49.920;17.868;2023-04-21T03:07:43;98841.94;;;0.30;84.04
69911;BME280;63555;49.920;17.868;2023-04-21T03:12:44;98848.06;;;0.27;84.03
69911;BME280;63555;49.920;17.868;2023-04-21T03:17:44;98862.78;;;0.27;84.24
69911;BME280;63555;49.920;17.868;2023-04-21T03:22:45;98868.03;;;0.25;84.23
69911;BME280;63555;49.920;17.868;2023-04-21T03:27:45;98861.19;;;0.23;84.24
69911;BME280;63555;49.920;17.868;2023-04-21T03:32:45;98861.44;;;0.15;84.07
69911;BME280;63555;49.920;17.868;2023-04-21T03:37:46;98856.34;;;0.12;84.01
69911;BME280;63555;49.920;17.868;2023-04-21T03:42:46;98859.91;;;0.10;84.23
69911;BME280;63555;49.920;17.868;2023-04-21T03:47:47;98859.00;;;0.11;84.46
69911;BME280;63555;49.920;17.868;2023-04-21T03:52:48;98876.25;;;0.12;84.08
69911;BME280;63555;49.920;17.868;2023-04-21T03:57:48;98870.16;;;0.13;84.75
69911;BME280;63555;49.920;17.868;2023-04-21T04:02:48;98877.94;;;0.13;84.59
69911;BME280;63555;49.920;17.868;2023-04-21T04:07:49;98877.03;;;0.14;85.03
69911;BME280;63555;49.920;17.868;2023-04-21T04:12:49;98875.94;;;0.21;85.44
69911;BME280;63555;49.920;17.868;2023-04-21T04:17:50;98877.41;;;0.29;85.70
69911;BME280;63555;49.920;17.868;2023-04-21T04:22:50;98871.97;;;0.37;85.47
69911;BME280;63555;49.920;17.868;2023-04-21T04:27:50;98876.75;;;0.49;86.23
69911;BME280;63555;49.920;17.868;2023-04-21T04:32:51;98880.63;;;0.62;85.97
69911;BME280;63555;49.920;17.868;2023-04-21T04:37:52;98892.28;;;0.76;86.78
69911;BME280;63555;49.920;17.868;2023-04-21T04:42:53;98880.44;;;0.93;86.37
69911;BME280;63555;49.920;17.868;2023-04-21T04:47:54;98883.34;;;1.09;86.59
69911;BME280;63555;49.920;17.868;2023-04-21T04:52:54;98887.94;;;1.26;87.39
69911;BME280;63555;49.920;17.868;2023-04-21T04:57:55;98881.41;;;1.39;87.12
69911;BME280;63555;49.920;17.868;2023-04-21T05:02:55;98878.22;;;1.54;87.40
69911;BME280;63555;49.920;17.868;2023-04-21T05:07:56;98881.88;;;1.72;87.62
69911;BME280;63555;49.920;17.868;2023-04-21T05:12:56;98881.16;;;1.92;88.03
69911;BME280;63555;49.920;17.868;2023-04-21T05:17:56;98884.66;;;2.13;87.99
69911;BME280;63555;49.920;17.868;2023-04-21T05:22:57;98888.81;;;2.39;87.67
69911;BME280;63555;49.920;17.868;2023-04-21T05:27:57;98882.59;;;2.65;88.27
69911;BME280;63555;49.920;17.868;2023-04-21T05:32:57;98876.34;;;2.89;88.89
69911;BME280;63555;49.920;17.868;2023-04-21T05:37:58;98876.13;;;3.14;88.77
69911;BME280;63555;49.920;17.868;2023-04-21T05:42:58;98873.28;;;3.39;88.97
69911;BME280;63555;49.920;17.868;2023-04-21T05:47:59;98876.56;;;3.81;89.58
69911;BME280;63555;49.920;17.868;2023-04-21T05:52:59;98875.81;;;4.52;90.95
69911;BME280;63555;49.920;17.868;2023-04-21T05:58:00;98878.28;;;5.72;93.29
69911;BME280;63555;49.920;17.868;2023-04-21T06:03:00;98871.00;;;6.86;91.64
69911;BME280;63555;49.920;17.868;2023-04-21T06:08:01;98873.22;;;8.08;90.18
69911;BME280;63555;49.920;17.868;2023-04-21T06:13:01;98872.94;;;9.69;87.11
69911;BME280;63555;49.920;17.868;2023-04-21T06:18:01;98862.22;;;11.15;83.53
69911;BME280;63555;49.920;17.868;2023-04-21T06:23:02;98857.19;;;12.35;80.78
69911;BME280;63555;49.920;17.868;2023-04-21T06:28:02;98864.44;;;13.39;79.37
69911;BME280;63555;49.920;17.868;2023-04-21T06:33:02;98862.88;;;14.47;76.93
69911;BME280;63555;49.920;17.868;2023-04-21T06:38:03;98858.38;;;15.35;75.63
69911;BME280;63555;49.920;17.868;2023-04-21T06:43:04;98861.09;;;16.27;73.17
69911;BME280;63555;49.920;17.868;2023-04-21T06:48:04;98859.38;;;17.24;71.19
69911;BME280;63555;49.920;17.868;2023-04-21T06:53:05;98857.69;;;17.93;69.44
69911;BME280;63555;49.920;17.868;2023-04-21T06:58:05;98855.06;;;18.51;67.61
69911;BME280;63555;49.920;17.868;2023-04-21T07:03:05;98851.13;;;19.12;65.88
69911;BME280;63555;49.920;17.868;2023-04-21T07:08:06;98858.41;;;19.75;63.67
69911;BME280;63555;49.920;17.868;2023-04-21T07:13:06;98854.66;;;20.40;61.05
69911;BME280;63555;49.920;17.868;2023-04-21T07:18:07;98855.28;;;21.18;57.78
69911;BME280;63555;49.920;17.868;2023-04-21T07:23:08;98863.38;;;21.85;55.49
69911;BME280;63555;49.920;17.868;2023-04-21T07:28:08;98856.22;;;22.37;54.28
69911;BME280;63555;49.920;17.868;2023-04-21T07:33:10;98853.38;;;22.96;52.37
69911;BME280;63555;49.920;17.868;2023-04-21T07:38:10;98854.97;;;23.39;50.38
69911;BME280;63555;49.920;17.868;2023-04-21T07:43:10;98846.88;;;23.89;49.50
69911;BME280;63555;49.920;17.868;2023-04-21T07:48:11;98845.69;;;24.39;47.21
69911;BME280;63555;49.920;17.868;2023-04-21T07:53:11;98853.06;;;24.91;46.35
69911;BME280;63555;49.920;17.868;2023-04-21T07:58:11;98842.13;;;25.59;44.79
69911;BME280;63555;49.920;17.868;2023-04-21T08:03:13;98856.56;;;26.17;43.56
69911;BME280;63555;49.920;17.868;2023-04-21T08:08:14;98846.78;;;26.67;42.00
69911;BME280;63555;49.920;17.868;2023-04-21T08:13:19;98844.31;;;26.59;42.29
69911;BME280;63555;49.920;17.868;2023-04-21T08:18:24;98837.22;;;27.28;40.89
69911;BME280;63555;49.920;17.868;2023-04-21T08:23:24;98833.00;;;27.57;40.46
69911;BME280;63555;49.920;17.868;2023-04-21T08:28:25;98835.72;;;28.18;38.98
69911;BME280;63555;49.920;17.868;2023-04-21T08:33:25;98829.44;;;28.84;38.08
69911;BME280;63555;49.920;17.868;2023-04-21T08:38:26;98827.13;;;29.00;37.32
69911;BME280;63555;49.920;17.868;2023-04-21T08:43:27;98815.34;;;29.29;35.72
69911;BME280;63555;49.920;17.868;2023-04-21T08:48:29;98818.56;;;29.85;34.95
69911;BME280;63555;49.920;17.868;2023-04-21T08:53:30;98805.44;;;30.45;34.46
69911;BME280;63555;49.920;17.868;2023-04-21T08:58:31;98805.72;;;31.05;32.39
69911;BME280;63555;49.920;17.868;2023-04-21T09:03:31;98809.72;;;31.48;31.72
69911;BME280;63555;49.920;17.868;2023-04-21T09:08:33;98801.75;;;31.80;31.50
69911;BME280;63555;49.920;17.868;2023-04-21T09:13:35;98792.91;;;32.60;29.64
69911;BME280;63555;49.920;17.868;2023-04-21T09:18:36;98794.78;;;32.82;28.49
69911;BME280;63555;49.920;17.868;2023-04-21T09:28:45;98788.50;;;33.13;27.16
69911;BME280;63555;49.920;17.868;2023-04-21T09:33:47;98782.09;;;33.30;26.66
69911;BME280;63555;49.920;17.868;2023-04-21T09:38:59;98776.03;;;33.70;26.44
69911;BME280;63555;49.920;17.868;2023-04-21T09:44:00;98773.03;;;34.24;26.52
69911;BME280;63555;49.920;17.868;2023-04-21T09:49:03;98768.75;;;34.63;26.08
69911;BME280;63555;49.920;17.868;2023-04-21T09:54:28;98759.19;;;34.66;25.46
69911;BME280;63555;49.920;17.868;2023-04-21T09:59:36;98748.81;;;35.34;25.37
69911;BME280;63555;49.920;17.868;2023-04-21T10:04:40;98754.53;;;35.53;24.22
69911;BME280;63555;49.920;17.868;2023-04-21T10:09:45;98753.13;;;35.70;23.75
69911;BME280;63555;49.920;17.868;2023-04-21T10:14:54;98739.25;;;36.06;21.85
69911;BME280;63555;49.920;17.868;2023-04-21T10:19:56;98736.16;;;35.28;21.89
69911;BME280;63555;49.920;17.868;2023-04-21T10:24:58;98727.13;;;34.66;22.07
69911;BME280;63555;49.920;17.868;2023-04-21T10:29:59;98732.34;;;34.73;22.03
69911;BME280;63555;49.920;17.868;2023-04-21T10:35:00;98717.56;;;34.99;21.39
69911;BME280;63555;49.920;17.868;2023-04-21T10:40:00;98717.53;;;35.25;21.89
69911;BME280;63555;49.920;17.868;2023-04-21T10:45:06;98713.72;;;35.00;20.97
69911;BME280;63555;49.920;17.868;2023-04-21T10:55:14;98702.66;;;34.24;20.28
69911;BME280;63555;49.920;17.868;2023-04-21T11:00:18;98696.66;;;34.22;21.41
69911;BME280;63555;49.920;17.868;2023-04-21T11:05:19;98690.44;;;33.22;22.96
69911;BME280;63555;49.920;17.868;2023-04-21T11:10:25;98689.66;;;32.57;23.27
69911;BME280;63555;49.920;17.868;2023-04-21T11:15:26;98673.88;;;33.39;22.18
69911;BME280;63555;49.920;17.868;2023-04-21T11:20:26;98680.28;;;34.53;21.08
69911;BME280;63555;49.920;17.868;2023-04-21T11:25:26;98668.94;;;35.46;20.64
69911;BME280;63555;49.920;17.868;2023-04-21T11:30:34;98666.84;;;35.12;20.02
69911;BME280;63555;49.920;17.868;2023-04-21T11:35:39;98673.66;;;32.71;21.73
69911;BME280;63555;49.920;17.868;2023-04-21T11:40:46;98665.75;;;29.99;24.42
69911;BME280;63555;49.920;17.868;2023-04-21T11:45:48;98655.81;;;29.13;25.47
69911;BME280;63555;49.920;17.868;2023-04-21T11:50:49;98654.53;;;30.69;24.47
69911;BME280;63555;49.920;17.868;2023-04-21T11:55:50;98663.56;;;33.09;23.02
69911;BME280;63555;49.920;17.868;2023-04-21T12:00:50;98656.88;;;32.25;23.03
69911;BME280;63555;49.920;17.868;2023-04-21T12:05:55;98661.56;;;29.52;25.28
69911;BME280;63555;49.920;17.868;2023-04-21T12:10:57;98651.69;;;27.74;27.54
69911;BME280;63555;49.920;17.868;2023-04-21T12:16:01;98639.44;;;26.73;27.94
69911;BME280;63555;49.920;17.868;2023-04-21T12:21:02;98639.31;;;26.86;27.88
69911;BME280;63555;49.920;17.868;2023-04-21T12:26:02;98634.41;;;27.02;26.80
69911;BME280;63555;49.920;17.868;2023-04-21T12:31:03;98629.78;;;28.59;25.28
69911;BME280;63555;49.920;17.868;2023-04-21T12:36:03;98616.31;;;28.29;26.16
69911;BME280;63555;49.920;17.868;2023-04-21T12:41:04;98616.03;;;29.87;24.89
69911;BME280;63555;49.920;17.868;2023-04-21T12:46:05;98608.50;;;31.45;23.03
69911;BME280;63555;49.920;17.868;2023-04-21T12:51:05;98603.88;;;31.46;22.62
69911;BME280;63555;49.920;17.868;2023-04-21T12:56:07;98603.22;;;30.61;22.96
69911;BME280;63555;49.920;17.868;2023-04-21T13:01:07;98601.28;;;28.68;24.86
69911;BME280;63555;49.920;17.868;2023-04-21T13:06:10;98603.19;;;27.36;25.69
69911;BME280;63555;49.920;17.868;2023-04-21T13:11:10;98603.06;;;27.31;25.79
69911;BME280;63555;49.920;17.868;2023-04-21T13:16:11;98594.53;;;26.47;27.52
69911;BME280;63555;49.920;17.868;2023-04-21T13:21:12;98588.91;;;26.49;28.08
69911;BME280;63555;49.920;17.868;2023-04-21T13:26:13;98581.63;;;27.77;26.63
69911;BME280;63555;49.920;17.868;2023-04-21T13:31:13;98579.66;;;28.38;26.83
69911;BME280;63555;49.920;17.868;2023-04-21T13:36:14;98574.94;;;28.45;27.04
69911;BME280;63555;49.920;17.868;2023-04-21T13:41:14;98564.75;;;29.62;26.02
69911;BME280;63555;49.920;17.868;2023-04-21T13:46:15;98564.88;;;30.01;25.55
69911;BME280;63555;49.920;17.868;2023-04-21T13:51:15;98558.91;;;29.30;26.44
69911;BME280;63555;49.920;17.868;2023-04-21T13:56:15;98552.31;;;30.28;25.68
69911;BME280;63555;49.920;17.868;2023-04-21T14:01:16;98542.84;;;31.25;24.73
69911;BME280;63555;49.920;17.868;2023-04-21T14:06:16;98541.22;;;32.05;23.72
69911;BME280;63555;49.920;17.868;2023-04-21T14:11:17;98545.25;;;32.66;22.25
69911;BME280;63555;49.920;17.868;2023-04-21T14:16:17;98541.19;;;32.32;22.54
69911;BME280;63555;49.920;17.868;2023-04-21T14:21:17;98536.09;;;32.08;22.66
69911;BME280;63555;49.920;17.868;2023-04-21T14:26:19;98527.47;;;30.58;23.95
69911;BME280;63555;49.920;17.868;2023-04-21T14:31:20;98521.94;;;29.01;24.93
69911;BME280;63555;49.920;17.868;2023-04-21T14:36:20;98525.69;;;29.11;26.16
69911;BME280;63555;49.920;17.868;2023-04-21T14:41:20;98519.44;;;29.51;25.24
69911;BME280;63555;49.920;17.868;2023-04-21T14:46:21;98510.09;;;30.26;25.31
69911;BME280;63555;49.920;17.868;2023-04-21T14:51:21;98508.84;;;30.89;23.49
69911;BME280;63555;49.920;17.868;2023-04-21T14:56:22;98506.38;;;30.87;24.09
69911;BME280;63555;49.920;17.868;2023-04-21T15:01:22;98503.38;;;31.27;23.82
69911;BME280;63555;49.920;17.868;2023-04-21T15:06:22;98489.44;;;31.51;23.47
69911;BME280;63555;49.920;17.868;2023-04-21T15:11:23;98486.69;;;31.51;23.41
69911;BME280;63555;49.920;17.868;2023-04-21T15:16:23;98475.22;;;31.49;23.20
69911;BME280;63555;49.920;17.868;2023-04-21T15:21:24;98475.25;;;31.05;23.44
69911;BME280;63555;49.920;17.868;2023-04-21T15:42:25;98476.63;;;23.65;30.23
69911;BME280;63555;49.920;17.868;2023-04-21T15:47:25;98470.63;;;22.95;30.89
69911;BME280;63555;49.920;17.868;2023-04-21T15:52:27;98463.41;;;22.54;31.66
69911;BME280;63555;49.920;17.868;2023-04-21T15:57:30;98460.34;;;22.02;32.43
69911;BME280;63555;49.920;17.868;2023-04-21T16:02:33;98450.47;;;21.53;32.67
69911;BME280;63555;49.920;17.868;2023-04-21T16:07:36;98453.53;;;21.28;33.67
69911;BME280;63555;49.920;17.868;2023-04-21T16:12:37;98447.94;;;21.09;33.85
69911;BME280;63555;49.920;17.868;2023-04-21T16:17:43;98451.63;;;21.22;33.55
69911;BME280;63555;49.920;17.868;2023-04-21T16:22:48;98446.06;;;21.45;33.39
69911;BME280;63555;49.920;17.868;2023-04-21T16:27:51;98438.56;;;21.62;33.22
69911;BME280;63555;49.920;17.868;2023-04-21T16:32:53;98435.75;;;21.70;32.71
69911;BME280;63555;49.920;17.868;2023-04-21T16:37:57;98435.19;;;21.53;32.72
69911;BME280;63555;49.920;17.868;2023-04-21T16:42:58;98432.19;;;21.20;33.32
69911;BME280;63555;49.920;17.868;2023-04-21T16:48:04;98443.78;;;20.70;34.46
69911;BME280;63555;49.920;17.868;2023-04-21T16:53:05;98443.66;;;19.90;36.08
69911;BME280;63555;49.920;17.868;2023-04-21T16:58:05;98434.31;;;19.11;37.54
69911;BME280;63555;49.920;17.868;2023-04-21T17:03:12;98434.84;;;18.36;38.99
69911;BME280;63555;49.920;17.868;2023-04-21T17:08:21;98436.16;;;17.68;40.68
69911;BME280;63555;49.920;17.868;2023-04-21T17:13:22;98440.94;;;17.08;41.97
69911;BME280;63555;49.920;17.868;2023-04-21T17:18:23;98434.97;;;16.47;43.25
69911;BME280;63555;49.920;17.868;2023-04-21T17:28:37;98442.09;;;15.43;45.73
69911;BME280;63555;49.920;17.868;2023-04-21T17:33:37;98439.41;;;15.00;46.82
69911;BME280;63555;49.920;17.868;2023-04-21T17:38:38;98450.72;;;14.56;48.03
69911;BME280;63555;49.920;17.868;2023-04-21T17:43:38;98444.75;;;14.17;48.98
69911;BME280;63555;49.920;17.868;2023-04-21T17:48:39;98445.28;;;13.74;49.91
69911;BME280;63555;49.920;17.868;2023-04-21T17:53:40;98449.69;;;13.36;50.78
69911;BME280;63555;49.920;17.868;2023-04-21T17:58:41;98458.03;;;13.03;52.08
69911;BME280;63555;49.920;17.868;2023-04-21T18:03:41;98459.63;;;12.65;53.13
69911;BME280;63555;49.920;17.868;2023-04-21T18:08:42;98465.78;;;12.26;53.97
69911;BME280;63555;49.920;17.868;2023-04-21T18:13:42;98472.72;;;11.96;54.63
69911;BME280;63555;49.920;17.868;2023-04-21T18:18:43;98477.13;;;11.65;55.44
69911;BME280;63555;49.920;17.868;2023-04-21T18:23:44;98481.38;;;11.36;56.22
69911;BME280;63555;49.920;17.868;2023-04-21T18:28:45;98479.91;;;11.11;57.01
69911;BME280;63555;49.920;17.868;2023-04-21T18:33:45;98489.69;;;10.88;57.69
69911;BME280;63555;49.920;17.868;2023-04-21T18:38:46;98488.91;;;10.65;57.58
69911;BME280;63555;49.920;17.868;2023-04-21T18:43:46;98493.97;;;10.46;58.25
69911;BME280;63555;49.920;17.868;2023-04-21T18:48:46;98489.41;;;10.26;58.94
69911;BME280;63555;49.920;17.868;2023-04-21T18:53:47;98493.34;;;10.09;59.61
69911;BME280;63555;49.920;17.868;2023-04-21T18:58:47;98490.94;;;9.95;60.35
69911;BME280;63555;49.920;17.868;2023-04-21T19:03:47;98488.19;;;9.85;60.92
69911;BME280;63555;49.920;17.868;2023-04-21T19:08:48;98493.31;;;9.75;61.27
69911;BME280;63555;49.920;17.868;2023-04-21T19:13:50;98494.38;;;9.62;61.48
69911;BME280;63555;49.920;17.868;2023-04-21T19:18:50;98494.78;;;9.44;61.75
69911;BME280;63555;49.920;17.868;2023-04-21T19:23:51;98487.19;;;9.29;62.30
69911;BME280;63555;49.920;17.868;2023-04-21T19:28:51;98502.78;;;9.08;62.25
69911;BME280;63555;49.920;17.868;2023-04-21T19:33:52;98498.38;;;8.84;63.20
69911;BME280;63555;49.920;17.868;2023-04-21T19:38:52;98495.34;;;8.65;63.47
69911;BME280;63555;49.920;17.868;2023-04-21T19:43:52;98503.72;;;8.46;63.68
69911;BME280;63555;49.920;17.868;2023-04-21T19:48:53;98506.16;;;8.24;64.25
69911;BME280;63555;49.920;17.868;2023-04-21T19:53:53;98498.41;;;8.10;65.20
69911;BME280;63555;49.920;17.868;2023-04-21T19:58:53;98507.34;;;7.94;64.82
69911;BME280;63555;49.920;17.868;2023-04-21T20:03:54;98505.00;;;7.77;66.01
69911;BME280;63555;49.920;17.868;2023-04-21T20:08:55;98508.47;;;7.65;66.48
69911;BME280;63555;49.920;17.868;2023-04-21T20:13:55;98521.25;;;7.57;67.17
69911;BME280;63555;49.920;17.868;2023-04-21T20:18:56;98519.66;;;7.42;67.15
69911;BME280;63555;49.920;17.868;2023-04-21T20:23:56;98523.31;;;7.26;67.02
69911;BME280;63555;49.920;17.868;2023-04-21T20:28:57;98527.88;;;7.10;66.91
69911;BME280;63555;49.920;17.868;2023-04-21T20:33:57;98528.94;;;6.93;67.70
69911;BME280;63555;49.920;17.868;2023-04-21T20:38:58;98539.56;;;6.78;68.09
69911;BME280;63555;49.920;17.868;2023-04-21T20:43:59;98541.09;;;6.67;68.72
69911;BME280;63555;49.920;17.868;2023-04-21T20:49:00;98543.34;;;6.59;68.06
69911;BME280;63555;49.920;17.868;2023-04-21T20:54:00;98542.25;;;6.49;68.17
69911;BME280;63555;49.920;17.868;2023-04-21T20:59:01;98544.34;;;6.30;68.92
69911;BME280;63555;49.920;17.868;2023-04-21T21:04:01;98552.28;;;6.14;69.42
69911;BME280;63555;49.920;17.868;2023-04-21T21:09:01;98535.59;;;6.01;70.10
69911;BME280;63555;49.920;17.868;2023-04-21T21:14:02;98553.72;;;5.90;69.95
69911;BME280;63555;49.920;17.868;2023-04-21T21:19:02;98551.63;;;5.81;70.05
69911;BME280;63555;49.920;17.868;2023-04-21T21:24:03;98547.88;;;5.70;70.72
69911;BME280;63555;49.920;17.868;2023-04-21T21:29:03;98540.84;;;5.57;70.80
69911;BME280;63555;49.920;17.868;2023-04-21T21:34:04;98554.38;;;5.49;70.98
69911;BME280;63555;49.920;17.868;2023-04-21T21:39:04;98564.72;;;5.36;70.94
69911;BME280;63555;49.920;17.868;2023-04-21T21:44:05;98559.53;;;5.21;71.34
69911;BME280;63555;49.920;17.868;2023-04-21T21:49:06;98553.00;;;5.12;71.51
69911;BME280;63555;49.920;17.868;2023-04-21T21:54:07;98559.50;;;5.05;71.74
69911;BME280;63555;49.920;17.868;2023-04-21T21:59:08;98554.91;;;4.94;71.93
69911;BME280;63555;49.920;17.868;2023-04-21T22:04:08;98558.03;;;4.85;72.53
69911;BME280;63555;49.920;17.868;2023-04-21T22:09:08;98568.13;;;4.75;72.15
69911;BME280;63555;49.920;17.868;2023-04-21T22:14:09;98573.88;;;4.66;72.36
69911;BME280;63555;49.920;17.868;2023-04-21T22:19:09;98578.66;;;4.58;72.63
69911;BME280;63555;49.920;17.868;2023-04-21T22:24:10;98568.72;;;4.49;73.21
69911;BME280;63555;49.920;17.868;2023-04-21T22:29:10;98576.22;;;4.39;73.44
69911;BME280;63555;49.920;17.868;2023-04-21T22:34:10;98560.09;;;4.31;73.45
69911;BME280;63555;49.920;17.868;2023-04-21T22:39:14;98572.63;;;4.25;73.69
69911;BME280;63555;49.920;17.868;2023-04-21T22:44:14;98573.88;;;4.18;73.75
69911;BME280;63555;49.920;17.868;2023-04-21T22:49:14;98569.97;;;4.09;73.82
69911;BME280;63555;49.920;17.868;2023-04-21T22:54:16;98581.72;;;4.00;73.79
69911;BME280;63555;49.920;17.868;2023-04-21T22:59:16;98576.22;;;3.89;74.50
69911;BME280;63555;49.920;17.868;2023-04-21T23:04:17;98580.84;;;3.84;74.47
69911;BME280;63555;49.920;17.868;2023-04-21T23:09:17;98571.50;;;3.80;74.54
69911;BME280;63555;49.920;17.868;2023-04-21T23:14:17;98577.94;;;3.73;74.36
69911;BME280;63555;49.920;17.868;2023-04-21T23:19:17;98581.78;;;3.66;74.10
69911;BME280;63555;49.920;17.868;2023-04-21T23:24:18;98584.69;;;3.60;74.69
69911;BME280;63555;49.920;17.868;2023-04-21T23:29:18;98566.06;;;3.50;74.66
69911;BME280;63555;49.920;17.868;2023-04-21T23:34:19;98579.69;;;3.38;75.03
69911;BME280;63555;49.920;17.868;2023-04-21T23:39:19;98580.06;;;3.30;75.42
69911;BME280;63555;49.920;17.868;2023-04-21T23:44:21;98570.16;;;3.19;75.17
69911;BME280;63555;49.920;17.868;2023-04-21T23:49:21;98566.09;;;3.14;75.41
69911;BME280;63555;49.920;17.868;2023-04-21T23:54:22;98573.72;;;3.00;75.11
69911;BME280;63555;49.920;17.868;2023-04-21T23:59:22;98577.47;;;2.94;75.73
